Time;durP1;ratioP1;P1;durP2;ratioP2;P2;SDS_P1;SDS_P2;PMS_P1;PMS_P2;Temp;Humidity;BMP_temperature;BMP_pressure;BME280_temperature;BME280_humidity;BME280_pressure;Samples;Min_cycle;Max_cycle;Signal;HPM_P1;HPM_P2
2023/05/20 00:00:49;;;;;;;8.05;3.28;;;;;;;;;;4915197;29;20044;-65
2023/05/20 00:03:20;;;;;;;8.80;3.38;;;;;;;;;;4910225;29;20079;-64
2023/05/20 00:05:46;;;;;;;6.88;3.55;;;;;;;;;;4913132;29;20036;-65
2023/05/20 00:08:12;;;;;;;8.82;3.50;;;;;;;;;;4910498;29;20052;-65
2023/05/20 00:10:38;;;;;;;7.75;3.63;;;;;;;;;;4911391;29;22013;-65
2023/05/20 00:13:05;;;;;;;11.05;3.47;;;;;;;;;;4910493;29;20048;-64
2023/05/20 00:15:32;;;;;;;7.75;3.70;;;;;;;;;;4905493;29;20062;-65
2023/05/20 00:18:00;;;;;;;7.40;4.05;;;;;;;;;;4911769;29;20089;-65
2023/05/20 00:20:27;;;;;;;12.60;3.88;;;;;;;;;;4925065;29;20052;-64
2023/05/20 00:22:53;;;;;;;7.10;3.38;;;;;;;;;;4907509;29;20115;-66
2023/05/20 00:25:19;;;;;;;8.35;3.90;;;;;;;;;;4912495;29;20048;-64
2023/05/20 00:27:46;;;;;;;6.03;3.35;;;;;;;;;;4912948;29;20459;-63
2023/05/20 00:30:13;;;;;;;6.88;3.97;;;;;;;;;;4910637;29;20091;-66
2023/05/20 00:32:39;;;;;;;11.35;3.60;;;;;;;;;;4909250;29;20496;-63
2023/05/20 00:35:09;;;;;;;7.13;3.50;;;;;;;;;;4909364;29;20048;-66
2023/05/20 00:37:36;;;;;;;8.70;3.85;;;;;;;;;;4913140;29;20123;-64
2023/05/20 00:40:02;;;;;;;8.43;3.60;;;;;;;;;;4915198;29;20048;-64
2023/05/20 00:42:29;;;;;;;10.90;3.83;;;;;;;;;;4910893;29;20052;-65
2023/05/20 00:44:55;;;;;;;9.63;4.03;;;;;;;;;;4906534;29;20052;-65
2023/05/20 00:47:26;;;;;;;12.65;3.83;;;;;;;;;;4908791;29;20505;-66
2023/05/20 00:49:52;;;;;;;8.77;4.05;;;;;;;;;;4913934;29;20043;-64
2023/05/20 00:52:18;;;;;;;5.70;3.67;;;;;;;;;;4909020;29;20719;-65
2023/05/20 00:54:46;;;;;;;7.32;3.50;;;;;;;;;;4912300;29;20048;-63
2023/05/20 00:57:12;;;;;;;6.50;3.58;;;;;;;;;;4911427;29;20060;-63
2023/05/20 00:59:39;;;;;;;10.00;3.58;;;;;;;;;;4914044;29;21826;-64
2023/05/20 01:02:06;;;;;;;8.15;3.33;;;;;;;;;;4907636;29;20044;-64
2023/05/20 01:04:32;;;;;;;7.53;3.25;;;;;;;;;;4910950;29;20060;-65
2023/05/20 01:07:00;;;;;;;8.65;3.13;;;;;;;;;;4905589;29;20075;-64
2023/05/20 01:09:26;;;;;;;9.75;3.20;;;;;;;;;;4910554;29;20130;-64
2023/05/20 01:12:01;;;;;;;10.10;4.38;;;;;;;;;;4906614;29;20076;-65
2023/05/20 01:14:33;;;;;;;6.85;3.33;;;;;;;;;;4905884;29;20070;-63
2023/05/20 01:17:08;;;;;;;9.27;3.67;;;;;;;;;;4903764;29;20512;-64
2023/05/20 01:19:42;;;;;;;6.50;3.38;;;;;;;;;;4908138;29;20147;-66
2023/05/20 01:22:11;;;;;;;6.60;3.20;;;;;;;;;;4905854;29;20061;-65
2023/05/20 01:24:47;;;;;;;9.27;3.53;;;;;;;;;;4910686;29;20081;-63
2023/05/20 01:27:13;;;;;;;9.15;3.33;;;;;;;;;;4908331;29;20048;-72
2023/05/20 01:29:41;;;;;;;7.93;3.60;;;;;;;;;;4913699;29;20056;-65
2023/05/20 01:32:14;;;;;;;5.75;3.08;;;;;;;;;;4909413;29;20445;-63
2023/05/20 01:34:42;;;;;;;11.77;3.35;;;;;;;;;;4911446;29;20056;-63
2023/05/20 01:37:09;;;;;;;7.57;4.00;;;;;;;;;;4912261;29;20075;-64
2023/05/20 01:39:40;;;;;;;7.68;3.13;;;;;;;;;;4909297;29;20115;-65
2023/05/20 01:42:09;;;;;;;9.07;3.30;;;;;;;;;;4910396;29;20061;-65
2023/05/20 01:44:36;;;;;;;5.50;3.05;;;;;;;;;;4911750;29;20472;-63
2023/05/20 01:47:02;;;;;;;8.23;3.58;;;;;;;;;;4909597;29;20044;-64
2023/05/20 01:49:29;;;;;;;6.57;3.50;;;;;;;;;;4907842;29;20428;-65
2023/05/20 01:51:55;;;;;;;7.30;3.80;;;;;;;;;;4908015;29;20064;-63
2023/05/20 01:54:22;;;;;;;8.23;3.90;;;;;;;;;;4911097;29;20520;-65
2023/05/20 01:56:50;;;;;;;12.57;4.43;;;;;;;;;;4907573;29;20063;-65
2023/05/20 01:59:16;;;;;;;10.07;4.55;;;;;;;;;;4910418;29;20419;-63
2023/05/20 02:01:42;;;;;;;11.43;4.35;;;;;;;;;;4906181;29;20052;-62
2023/05/20 02:04:08;;;;;;;8.57;3.92;;;;;;;;;;4909884;29;20131;-64
2023/05/20 02:06:35;;;;;;;7.05;3.92;;;;;;;;;;4906608;29;20234;-65
2023/05/20 02:09:01;;;;;;;9.60;4.03;;;;;;;;;;4909398;29;20055;-63
2023/05/20 02:11:28;;;;;;;10.10;4.05;;;;;;;;;;4909274;29;20048;-64
2023/05/20 02:13:55;;;;;;;12.65;4.10;;;;;;;;;;4911071;29;20124;-64
2023/05/20 02:16:21;;;;;;;8.35;4.07;;;;;;;;;;4906641;29;20060;-65
2023/05/20 02:18:47;;;;;;;11.63;4.10;;;;;;;;;;4910251;29;20048;-64
2023/05/20 02:21:15;;;;;;;12.40;4.53;;;;;;;;;;4913142;29;20044;-64
2023/05/20 02:23:41;;;;;;;10.10;4.40;;;;;;;;;;4910829;29;20206;-67
2023/05/20 02:26:06;;;;;;;8.10;4.18;;;;;;;;;;4912735;29;20111;-64
2023/05/20 02:28:32;;;;;;;8.40;4.30;;;;;;;;;;4909674;29;20056;-64
2023/05/20 02:30:58;;;;;;;8.90;4.03;;;;;;;;;;4901774;29;20040;-65
2023/05/20 02:33:27;;;;;;;9.65;4.57;;;;;;;;;;4901511;29;20045;-63
2023/05/20 02:35:54;;;;;;;8.43;4.00;;;;;;;;;;4910143;29;20052;-64
2023/05/20 02:38:20;;;;;;;9.20;4.35;;;;;;;;;;4909358;29;20084;-68
2023/05/20 02:40:47;;;;;;;9.68;4.05;;;;;;;;;;4906827;29;20044;-65
2023/05/20 02:43:14;;;;;;;9.82;3.67;;;;;;;;;;4909923;29;20067;-65
2023/05/20 02:45:40;;;;;;;7.45;3.40;;;;;;;;;;4909780;29;20512;-64
2023/05/20 02:48:06;;;;;;;7.25;4.10;;;;;;;;;;4910044;29;20056;-63
2023/05/20 02:50:32;;;;;;;6.90;3.50;;;;;;;;;;4909088;29;20604;-63
2023/05/20 02:52:58;;;;;;;7.28;3.80;;;;;;;;;;4908156;29;20060;-65
2023/05/20 02:55:27;;;;;;;7.05;3.38;;;;;;;;;;4911017;29;20056;-63
2023/05/20 02:57:53;;;;;;;10.73;3.28;;;;;;;;;;4911653;29;20056;-63
2023/05/20 03:00:18;;;;;;;6.68;3.22;;;;;;;;;;4908371;29;20123;-64
2023/05/20 03:02:46;;;;;;;8.48;3.70;;;;;;;;;;4909383;29;20464;-64
2023/05/20 03:05:13;;;;;;;9.45;4.20;;;;;;;;;;4910188;29;20150;-66
2023/05/20 03:07:39;;;;;;;7.72;3.22;;;;;;;;;;4911417;29;20052;-65
2023/05/20 03:10:06;;;;;;;10.30;3.88;;;;;;;;;;4910634;29;20046;-62
2023/05/20 03:12:33;;;;;;;5.07;3.10;;;;;;;;;;4908953;29;20056;-69
2023/05/20 03:14:59;;;;;;;6.20;3.33;;;;;;;;;;4906103;29;20148;-65
2023/05/20 03:17:25;;;;;;;7.47;3.15;;;;;;;;;;4908427;29;20516;-64
2023/05/20 03:19:51;;;;;;;9.75;3.22;;;;;;;;;;4912562;29;20040;-64
2023/05/20 03:22:17;;;;;;;8.27;3.45;;;;;;;;;;4912093;29;20455;-64
2023/05/20 03:24:45;;;;;;;4.50;3.10;;;;;;;;;;4910925;29;20044;-66
2023/05/20 03:27:11;;;;;;;11.18;3.13;;;;;;;;;;4909758;29;20126;-64
2023/05/20 03:29:37;;;;;;;6.28;2.90;;;;;;;;;;4913194;29;20052;-64
2023/05/20 03:32:05;;;;;;;9.52;3.10;;;;;;;;;;4908564;29;20360;-64
2023/05/20 03:34:31;;;;;;;6.57;3.05;;;;;;;;;;4913299;29;20103;-65
2023/05/20 03:36:59;;;;;;;8.27;3.13;;;;;;;;;;4911340;29;20063;-63
2023/05/20 03:39:24;;;;;;;7.65;3.20;;;;;;;;;;4912697;29;20052;-64
2023/05/20 03:41:50;;;;;;;8.15;3.10;;;;;;;;;;4913768;29;20044;-64
2023/05/20 03:44:16;;;;;;;7.75;3.47;;;;;;;;;;4913474;29;20067;-63
2023/05/20 03:46:44;;;;;;;5.95;2.67;;;;;;;;;;4913793;29;20048;-63
2023/05/20 03:49:09;;;;;;;5.35;2.80;;;;;;;;;;4911993;29;20060;-67
2023/05/20 03:51:35;;;;;;;6.05;2.70;;;;;;;;;;4913400;29;20048;-69
2023/05/20 03:54:03;;;;;;;5.55;3.00;;;;;;;;;;4913090;29;20480;-63
2023/05/20 03:56:30;;;;;;;5.50;2.78;;;;;;;;;;4916357;29;20043;-62
2023/05/20 03:58:57;;;;;;;6.28;2.70;;;;;;;;;;4912299;29;20067;-62
2023/05/20 04:01:24;;;;;;;5.70;2.53;;;;;;;;;;4912246;29;20052;-64
2023/05/20 04:03:50;;;;;;;6.53;3.08;;;;;;;;;;4913072;29;20044;-64
2023/05/20 04:06:16;;;;;;;7.55;3.00;;;;;;;;;;4914094;29;20112;-65
2023/05/20 04:08:42;;;;;;;5.35;2.80;;;;;;;;;;4912567;29;20059;-64
2023/05/20 04:11:09;;;;;;;4.88;2.75;;;;;;;;;;4908229;29;20067;-65
2023/05/20 04:13:34;;;;;;;5.47;2.83;;;;;;;;;;4914445;29;20778;-63
2023/05/20 04:16:01;;;;;;;6.55;2.75;;;;;;;;;;4910419;29;20520;-65
2023/05/20 04:18:30;;;;;;;6.97;2.70;;;;;;;;;;4914968;29;20067;-64
2023/05/20 04:20:58;;;;;;;4.75;2.40;;;;;;;;;;4914546;29;20044;-64
2023/05/20 04:23:24;;;;;;;7.20;2.80;;;;;;;;;;4914597;29;20060;-63
2023/05/20 04:25:50;;;;;;;4.00;2.35;;;;;;;;;;4912350;29;20081;-63
2023/05/20 04:28:16;;;;;;;6.70;2.95;;;;;;;;;;4913638;29;20056;-62
2023/05/20 04:30:43;;;;;;;5.60;2.33;;;;;;;;;;4911482;29;20134;-66
2023/05/20 04:33:10;;;;;;;4.82;2.25;;;;;;;;;;4909110;29;20424;-63
2023/05/20 04:35:36;;;;;;;6.07;2.53;;;;;;;;;;4911787;29;20052;-63
2023/05/20 04:38:02;;;;;;;5.22;2.58;;;;;;;;;;4911482;29;20079;-64
2023/05/20 04:40:29;;;;;;;5.25;2.70;;;;;;;;;;4912861;29;20055;-63
2023/05/20 04:42:58;;;;;;;7.50;3.75;;;;;;;;;;4892831;29;20059;-62
2023/05/20 04:45:25;;;;;;;6.60;2.65;;;;;;;;;;4911579;29;20071;-63
2023/05/20 04:47:52;;;;;;;6.70;2.67;;;;;;;;;;4912702;29;20048;-63
2023/05/20 04:50:18;;;;;;;8.82;2.70;;;;;;;;;;4909420;29;20075;-64
2023/05/20 04:52:44;;;;;;;5.35;2.35;;;;;;;;;;4910010;29;20075;-64
2023/05/20 04:55:11;;;;;;;9.20;2.50;;;;;;;;;;4908600;29;20063;-65
2023/05/20 04:57:40;;;;;;;6.28;2.40;;;;;;;;;;4912305;29;20416;-63
2023/05/20 05:00:08;;;;;;;4.82;2.35;;;;;;;;;;4908306;29;20412;-64
2023/05/20 05:02:35;;;;;;;5.80;2.70;;;;;;;;;;4910178;29;20143;-63
2023/05/20 05:05:01;;;;;;;5.47;2.72;;;;;;;;;;4913560;29;20127;-65
2023/05/20 05:07:27;;;;;;;4.22;2.50;;;;;;;;;;4905523;29;20151;-62
2023/05/20 05:09:54;;;;;;;7.18;2.65;;;;;;;;;;4910212;29;20070;-67
2023/05/20 05:12:20;;;;;;;5.40;2.33;;;;;;;;;;4909598;29;20421;-65
2023/05/20 05:14:46;;;;;;;4.68;2.65;;;;;;;;;;4912550;29;20425;-65
2023/05/20 05:17:12;;;;;;;6.03;2.65;;;;;;;;;;4910763;29;20052;-63
2023/05/20 05:19:38;;;;;;;8.02;3.00;;;;;;;;;;4909939;29;20052;-63
2023/05/20 05:22:05;;;;;;;4.95;2.50;;;;;;;;;;4909459;29;20440;-63
2023/05/20 05:24:31;;;;;;;8.15;2.70;;;;;;;;;;4905575;29;20231;-63
2023/05/20 05:26:57;;;;;;;6.35;2.97;;;;;;;;;;4911757;29;20473;-64
2023/05/20 05:29:23;;;;;;;4.43;2.35;;;;;;;;;;4907210;29;20048;-63
2023/05/20 05:31:49;;;;;;;5.05;2.20;;;;;;;;;;4911841;29;20040;-64
2023/05/20 05:34:17;;;;;;;6.97;2.70;;;;;;;;;;4910023;29;20485;-62
2023/05/20 05:36:44;;;;;;;7.00;2.90;;;;;;;;;;4907315;29;20103;-64
2023/05/20 05:39:10;;;;;;;9.25;2.63;;;;;;;;;;4915626;29;20122;-62
2023/05/20 05:41:35;;;;;;;5.93;2.70;;;;;;;;;;4909070;29;20056;-62
2023/05/20 05:44:04;;;;;;;8.10;2.65;;;;;;;;;;4909261;29;20068;-63
2023/05/20 05:46:34;;;;;;;5.32;2.38;;;;;;;;;;4912464;29;20368;-63
2023/05/20 05:49:00;;;;;;;5.47;2.33;;;;;;;;;;4909778;29;20060;-66
2023/05/20 05:51:27;;;;;;;10.48;2.70;;;;;;;;;;4906553;29;20504;-63
2023/05/20 05:53:53;;;;;;;8.77;2.80;;;;;;;;;;4910821;29;20204;-66
2023/05/20 05:56:20;;;;;;;5.88;2.55;;;;;;;;;;4911618;29;20063;-66
2023/05/20 05:58:48;;;;;;;9.82;2.42;;;;;;;;;;4910956;29;20587;-65
2023/05/20 06:01:14;;;;;;;7.15;2.47;;;;;;;;;;4907017;29;20389;-63
2023/05/20 06:03:40;;;;;;;5.28;2.60;;;;;;;;;;4911657;29;20044;-65
2023/05/20 06:06:06;;;;;;;4.85;2.22;;;;;;;;;;4908069;29;20062;-64
2023/05/20 06:08:32;;;;;;;6.85;2.47;;;;;;;;;;4909291;29;20067;-64
2023/05/20 06:10:59;;;;;;;5.38;2.40;;;;;;;;;;4908859;29;20116;-64
2023/05/20 06:13:25;;;;;;;6.45;2.65;;;;;;;;;;4911479;29;20471;-64
2023/05/20 06:15:52;;;;;;;4.75;2.45;;;;;;;;;;4904332;29;20048;-64
2023/05/20 06:18:18;;;;;;;5.60;2.60;;;;;;;;;;4905009;29;20048;-65
2023/05/20 06:20:44;;;;;;;7.53;2.30;;;;;;;;;;4909692;29;20050;-62
2023/05/20 06:23:11;;;;;;;6.50;2.42;;;;;;;;;;4910481;29;20060;-66
2023/05/20 06:25:38;;;;;;;5.43;2.45;;;;;;;;;;4905208;29;20056;-64
2023/05/20 06:28:44;;;;;;;5.93;2.45;;;;;;;;;;4897207;29;20138;-66
2023/05/20 06:32:25;;;;;;;6.95;2.90;;;;;;;;;;4907015;29;20123;-64
2023/05/20 06:36:05;;;;;;;8.80;2.50;;;;;;;;;;4909448;29;20069;-65
2023/05/20 06:39:46;;;;;;;6.18;2.38;;;;;;;;;;4906028;29;20040;-65
2023/05/20 06:43:26;;;;;;;5.55;2.65;;;;;;;;;;4906189;29;20147;-65
2023/05/20 06:47:07;;;;;;;8.55;2.50;;;;;;;;;;4908387;29;20040;-63
2023/05/20 06:50:48;;;;;;;6.55;2.38;;;;;;;;;;4911143;29;20453;-64
2023/05/20 06:54:29;;;;;;;7.00;2.70;;;;;;;;;;4909980;29;20097;-65
2023/05/20 06:58:10;;;;;;;6.65;2.50;;;;;;;;;;4907189;29;20051;-66
2023/05/20 07:01:51;;;;;;;6.93;2.50;;;;;;;;;;4910934;29;20059;-65
2023/05/20 07:05:32;;;;;;;8.60;3.05;;;;;;;;;;4911160;29;20075;-65
2023/05/20 07:09:13;;;;;;;6.97;2.80;;;;;;;;;;4914414;29;20040;-65
2023/05/20 07:12:54;;;;;;;6.15;2.30;;;;;;;;;;4910494;29;20084;-64
2023/05/20 07:15:54;;;;;;;7.20;2.58;;;;;;;;;;4903836;29;20075;-64
2023/05/20 07:18:20;;;;;;;8.95;2.70;;;;;;;;;;4905980;29;20067;-67
2023/05/20 07:20:46;;;;;;;7.35;2.67;;;;;;;;;;4910090;29;20048;-64
2023/05/20 07:23:52;;;;;;;11.70;2.92;;;;;;;;;;4904151;29;20531;-64
2023/05/20 07:27:33;;;;;;;9.57;2.67;;;;;;;;;;4909257;29;20056;-62
2023/05/20 07:31:13;;;;;;;7.28;2.60;;;;;;;;;;4911002;29;20408;-63
2023/05/20 07:34:53;;;;;;;7.18;3.15;;;;;;;;;;4911513;29;20110;-63
2023/05/20 07:38:34;;;;;;;9.63;2.50;;;;;;;;;;4912886;29;20422;-65
2023/05/20 07:42:14;;;;;;;10.82;3.00;;;;;;;;;;4912715;29;20058;-63
2023/05/20 07:45:55;;;;;;;7.78;2.88;;;;;;;;;;4910020;29;20393;-65
2023/05/20 07:48:55;;;;;;;9.23;2.90;;;;;;;;;;4908293;29;20561;-68
2023/05/20 07:51:21;;;;;;;6.13;2.60;;;;;;;;;;4912723;29;20048;-65
2023/05/20 07:53:47;;;;;;;11.93;3.15;;;;;;;;;;4906533;29;20208;-62
2023/05/20 07:56:16;;;;;;;9.90;3.00;;;;;;;;;;4907600;29;20063;-64
2023/05/20 07:58:42;;;;;;;7.82;2.63;;;;;;;;;;4906265;29;20139;-65
2023/05/20 08:01:10;;;;;;;7.22;2.50;;;;;;;;;;4913387;29;20592;-66
2023/05/20 08:03:36;;;;;;;7.95;2.65;;;;;;;;;;4911606;29;20067;-64
2023/05/20 08:06:02;;;;;;;8.57;3.15;;;;;;;;;;4910746;29;20062;-60
2023/05/20 08:08:29;;;;;;;10.20;2.78;;;;;;;;;;4910550;29;20449;-61
2023/05/20 08:10:55;;;;;;;9.30;3.17;;;;;;;;;;4909838;29;20107;-58
2023/05/20 08:13:21;;;;;;;11.00;3.42;;;;;;;;;;4911919;29;20501;-61
2023/05/20 08:15:48;;;;;;;7.82;3.13;;;;;;;;;;4910180;29;20099;-61
2023/05/20 08:18:15;;;;;;;5.30;2.70;;;;;;;;;;4912209;29;20079;-63
2023/05/20 08:20:46;;;;;;;7.15;2.88;;;;;;;;;;4910671;29;20409;-61
2023/05/20 08:23:11;;;;;;;7.18;2.95;;;;;;;;;;4912085;29;20048;-60
2023/05/20 08:25:38;;;;;;;5.43;2.80;;;;;;;;;;4912209;29;20048;-64
2023/05/20 08:28:05;;;;;;;5.50;2.53;;;;;;;;;;4905147;29;20060;-63
2023/05/20 08:30:33;;;;;;;7.63;2.97;;;;;;;;;;4911987;29;20083;-63
2023/05/20 08:33:00;;;;;;;9.02;2.92;;;;;;;;;;4909325;29;20108;-64
2023/05/20 08:35:27;;;;;;;8.75;2.75;;;;;;;;;;4905494;29;20056;-63
2023/05/20 08:37:53;;;;;;;7.65;2.80;;;;;;;;;;4912317;29;20135;-62
2023/05/20 08:40:20;;;;;;;11.05;3.33;;;;;;;;;;4912799;29;20412;-62
2023/05/20 08:42:48;;;;;;;9.82;3.67;;;;;;;;;;4912283;29;20044;-62
2023/05/20 08:45:17;;;;;;;9.63;4.00;;;;;;;;;;4911022;29;20119;-63
2023/05/20 08:47:43;;;;;;;10.02;3.33;;;;;;;;;;4906722;29;20048;-64
2023/05/20 08:50:11;;;;;;;9.57;3.40;;;;;;;;;;4908862;29;20060;-68
2023/05/20 08:52:43;;;;;;;8.25;2.80;;;;;;;;;;4907228;29;20080;-63
2023/05/20 08:55:14;;;;;;;5.47;2.90;;;;;;;;;;4908635;29;20056;-64
2023/05/20 08:57:44;;;;;;;6.18;3.10;;;;;;;;;;4904578;29;20187;-70
2023/05/20 09:00:12;;;;;;;8.07;3.45;;;;;;;;;;4905828;29;20111;-63
2023/05/20 09:02:39;;;;;;;11.60;3.72;;;;;;;;;;4911335;29;20386;-64
2023/05/20 09:05:06;;;;;;;9.32;3.45;;;;;;;;;;4907250;29;20183;-64
2023/05/20 09:07:32;;;;;;;11.63;3.20;;;;;;;;;;4906208;29;20653;-66
2023/05/20 09:09:58;;;;;;;7.65;2.80;;;;;;;;;;4911699;29;20048;-64
2023/05/20 09:12:24;;;;;;;6.72;3.30;;;;;;;;;;4909271;29;20048;-62
2023/05/20 09:14:51;;;;;;;10.23;2.88;;;;;;;;;;4907896;29;20114;-63
2023/05/20 09:17:22;;;;;;;20.95;3.17;;;;;;;;;;4906183;29;20080;-65
2023/05/20 09:20:29;;;;;;;9.77;3.00;;;;;;;;;;4909512;29;20058;-65
2023/05/20 09:24:09;;;;;;;5.88;2.35;;;;;;;;;;4905096;29;20536;-65
2023/05/20 09:27:49;;;;;;;7.63;2.70;;;;;;;;;;4911446;29;20587;-67
2023/05/20 09:31:29;;;;;;;8.93;3.00;;;;;;;;;;4903458;29;20044;-63
2023/05/20 09:35:10;;;;;;;8.13;2.97;;;;;;;;;;4906249;29;20048;-66
2023/05/20 09:38:58;;;;;;;7.80;2.80;;;;;;;;;;4912329;29;20301;-65
2023/05/20 09:42:41;;;;;;;6.82;2.67;;;;;;;;;;4912015;29;20453;-64
2023/05/20 09:46:21;;;;;;;9.90;3.15;;;;;;;;;;4913483;29;20390;-64
2023/05/20 09:50:02;;;;;;;6.13;2.72;;;;;;;;;;4915089;29;20070;-63
2023/05/20 09:53:42;;;;;;;8.55;3.20;;;;;;;;;;4906913;29;20126;-64
2023/05/20 09:57:23;;;;;;;5.47;2.45;;;;;;;;;;4911044;29;20052;-64
2023/05/20 10:01:03;;;;;;;11.32;3.35;;;;;;;;;;4902359;29;20500;-64
2023/05/20 10:04:44;;;;;;;5.53;2.60;;;;;;;;;;4908835;29;20047;-64
2023/05/20 10:08:30;;;;;;;7.85;2.72;;;;;;;;;;4910018;29;20047;-64
2023/05/20 10:11:33;;;;;;;6.97;3.00;;;;;;;;;;4905556;29;20082;-64
2023/05/20 10:14:46;;;;;;;4.80;3.08;;;;;;;;;;4911005;29;20055;-63
2023/05/20 10:18:25;;;;;;;7.38;2.42;;;;;;;;;;4912085;29;20063;-65
2023/05/20 10:22:05;;;;;;;6.88;2.75;;;;;;;;;;4916812;29;20140;-64
2023/05/20 10:25:46;;;;;;;6.50;2.95;;;;;;;;;;4906414;29;20044;-64
2023/05/20 10:29:36;;;;;;;5.95;3.13;;;;;;;;;;4909252;29;20469;-63
2023/05/20 10:33:16;;;;;;;5.68;2.90;;;;;;;;;;4909260;29;20187;-62
2023/05/20 10:37:06;;;;;;;5.13;2.70;;;;;;;;;;4907792;29;20048;-64
2023/05/20 10:40:49;;;;;;;8.05;2.95;;;;;;;;;;4911880;29;20050;-62
2023/05/20 10:44:39;;;;;;;6.88;3.00;;;;;;;;;;4908431;29;20054;-62
2023/05/20 10:48:22;;;;;;;6.15;3.08;;;;;;;;;;4918709;29;20133;-65
2023/05/20 10:52:03;;;;;;;11.15;2.90;;;;;;;;;;4910138;29;20051;-64
2023/05/20 10:55:43;;;;;;;9.10;2.70;;;;;;;;;;4920675;29;20157;-64
2023/05/20 10:59:24;;;;;;;7.05;2.78;;;;;;;;;;4912986;29;20056;-65
2023/05/20 11:03:06;;;;;;;9.20;2.67;;;;;;;;;;4909154;29;20042;-65
2023/05/20 11:06:14;;;;;;;7.97;2.70;;;;;;;;;;4907764;29;20068;-64
2023/05/20 11:08:42;;;;;;;13.73;3.67;;;;;;;;;;4907027;29;20051;-65
2023/05/20 11:11:09;;;;;;;7.60;2.80;;;;;;;;;;4912270;29;20115;-66
2023/05/20 11:13:38;;;;;;;5.70;2.50;;;;;;;;;;4910730;29;20052;-65
2023/05/20 11:16:04;;;;;;;10.80;3.00;;;;;;;;;;4900804;29;20060;-67
2023/05/20 11:18:31;;;;;;;7.05;4.22;;;;;;;;;;4912044;29;20619;-69
2023/05/20 11:20:57;;;;;;;6.10;3.00;;;;;;;;;;4910994;29;20060;-65
2023/05/20 11:23:26;;;;;;;7.97;2.75;;;;;;;;;;4911011;29;20056;-65
2023/05/20 11:25:54;;;;;;;5.88;2.47;;;;;;;;;;4911657;29;20044;-64
2023/05/20 11:28:21;;;;;;;5.40;2.72;;;;;;;;;;4911010;29;20103;-63
2023/05/20 11:30:47;;;;;;;5.00;2.67;;;;;;;;;;4910009;29;20044;-66
2023/05/20 11:33:15;;;;;;;7.80;3.20;;;;;;;;;;4911882;29;20079;-65
2023/05/20 11:35:46;;;;;;;12.30;3.13;;;;;;;;;;4911751;29;20126;-67
2023/05/20 11:38:13;;;;;;;10.40;4.30;;;;;;;;;;4914375;29;20059;-66
2023/05/20 11:40:44;;;;;;;6.13;2.30;;;;;;;;;;4916133;29;20142;-66
2023/05/20 11:43:12;;;;;;;8.02;2.40;;;;;;;;;;4913990;29;20052;-64
2023/05/20 11:45:42;;;;;;;6.55;2.63;;;;;;;;;;4912276;29;20043;-67
2023/05/20 11:48:14;;;;;;;6.95;2.75;;;;;;;;;;4914281;29;20079;-66
2023/05/20 11:50:43;;;;;;;5.40;2.55;;;;;;;;;;4912226;29;20061;-66
2023/05/20 11:53:13;;;;;;;7.38;2.90;;;;;;;;;;4913857;29;20056;-66
2023/05/20 11:55:51;;;;;;;5.28;2.33;;;;;;;;;;4914123;29;20055;-66
2023/05/20 11:58:19;;;;;;;7.18;2.58;;;;;;;;;;4912790;29;20055;-65
2023/05/20 12:00:46;;;;;;;7.63;2.75;;;;;;;;;;4910969;29;20331;-65
2023/05/20 12:03:12;;;;;;;7.88;2.25;;;;;;;;;;4912613;29;20143;-68
2023/05/20 12:05:39;;;;;;;7.85;2.20;;;;;;;;;;4910907;29;20056;-64
2023/05/20 12:08:06;;;;;;;6.70;2.35;;;;;;;;;;4911314;29;20040;-65
2023/05/20 12:10:33;;;;;;;6.53;2.60;;;;;;;;;;4913212;29;20055;-66
2023/05/20 12:12:59;;;;;;;5.85;2.33;;;;;;;;;;4912501;29;20271;-67
2023/05/20 12:15:25;;;;;;;9.57;3.00;;;;;;;;;;4913340;29;20056;-65
2023/05/20 12:17:53;;;;;;;6.80;2.30;;;;;;;;;;4912139;29;20058;-66
2023/05/20 12:20:21;;;;;;;5.82;2.20;;;;;;;;;;4910479;29;20140;-64
2023/05/20 12:22:48;;;;;;;5.63;2.35;;;;;;;;;;4907638;29;20135;-65
2023/05/20 12:25:15;;;;;;;6.45;2.33;;;;;;;;;;4913335;29;20071;-66
2023/05/20 12:27:46;;;;;;;3.75;1.90;;;;;;;;;;4914010;29;20046;-65
2023/05/20 12:30:17;;;;;;;4.60;2.15;;;;;;;;;;4916058;29;20048;-68
2023/05/20 12:32:49;;;;;;;3.80;2.00;;;;;;;;;;4913592;29;20171;-65
2023/05/20 12:35:18;;;;;;;5.30;2.17;;;;;;;;;;4912348;29;20048;-67
2023/05/20 12:37:45;;;;;;;7.95;2.13;;;;;;;;;;4910335;29;20047;-67
2023/05/20 12:40:11;;;;;;;5.60;2.28;;;;;;;;;;4911084;29;20540;-65
2023/05/20 12:42:40;;;;;;;4.55;2.28;;;;;;;;;;4911076;29;20050;-65
2023/05/20 12:45:07;;;;;;;4.90;2.28;;;;;;;;;;4912611;29;20139;-64
2023/05/20 12:47:34;;;;;;;4.28;2.15;;;;;;;;;;4911304;29;20415;-64
2023/05/20 12:50:02;;;;;;;8.82;2.30;;;;;;;;;;4911448;29;20086;-66
2023/05/20 12:52:28;;;;;;;5.00;1.92;;;;;;;;;;4909770;29;20048;-65
2023/05/20 12:54:55;;;;;;;6.78;2.13;;;;;;;;;;4911365;29;20060;-65
2023/05/20 12:57:22;;;;;;;6.22;2.00;;;;;;;;;;4908138;29;20520;-65
2023/05/20 12:59:48;;;;;;;4.25;1.90;;;;;;;;;;4908583;29;20501;-64
2023/05/20 13:02:14;;;;;;;6.93;2.47;;;;;;;;;;4912079;29;20068;-65
2023/05/20 13:04:40;;;;;;;4.82;2.30;;;;;;;;;;4913815;29;20044;-67
2023/05/20 13:07:09;;;;;;;7.75;3.00;;;;;;;;;;4909624;29;20056;-67
2023/05/20 13:09:35;;;;;;;4.32;2.20;;;;;;;;;;4911291;29;20111;-64
2023/05/20 13:12:02;;;;;;;6.63;2.80;;;;;;;;;;4910757;29;20492;-66
2023/05/20 13:14:28;;;;;;;4.07;2.20;;;;;;;;;;4911404;29;20063;-65
2023/05/20 13:16:55;;;;;;;6.28;2.63;;;;;;;;;;4906431;29;20047;-64
2023/05/20 13:19:22;;;;;;;7.53;2.60;;;;;;;;;;4908551;29;20583;-67
2023/05/20 13:21:49;;;;;;;5.07;1.98;;;;;;;;;;4910018;29;20059;-64
2023/05/20 13:24:19;;;;;;;6.25;2.50;;;;;;;;;;4910221;29;20048;-67
2023/05/20 13:26:45;;;;;;;4.78;2.00;;;;;;;;;;4912788;29;20049;-64
2023/05/20 13:29:12;;;;;;;5.03;1.90;;;;;;;;;;4912052;29;20083;-65
2023/05/20 13:31:39;;;;;;;6.65;2.13;;;;;;;;;;4915681;29;20052;-63
2023/05/20 13:34:05;;;;;;;4.45;2.10;;;;;;;;;;4912391;29;20044;-68
2023/05/20 13:36:31;;;;;;;4.38;2.50;;;;;;;;;;4913468;29;20401;-66
2023/05/20 13:38:57;;;;;;;5.60;2.17;;;;;;;;;;4911117;29;20103;-67
2023/05/20 13:41:26;;;;;;;4.03;2.30;;;;;;;;;;4915270;29;20075;-64
2023/05/20 13:43:52;;;;;;;4.75;2.10;;;;;;;;;;4890729;29;20420;-65
2023/05/20 13:46:18;;;;;;;5.28;2.17;;;;;;;;;;4913443;29;20139;-65
2023/05/20 13:48:44;;;;;;;5.47;2.03;;;;;;;;;;4906319;29;20895;-65
2023/05/20 13:51:11;;;;;;;5.00;2.08;;;;;;;;;;4911428;29;20059;-65
2023/05/20 13:53:38;;;;;;;5.88;2.10;;;;;;;;;;4911725;29;20052;-66
2023/05/20 13:56:08;;;;;;;7.32;2.47;;;;;;;;;;4911583;29;20103;-65
2023/05/20 13:58:35;;;;;;;4.63;2.13;;;;;;;;;;4926114;29;20036;-64
2023/05/20 14:01:03;;;;;;;4.57;2.50;;;;;;;;;;4912425;29;20051;-66
2023/05/20 14:03:33;;;;;;;5.90;2.30;;;;;;;;;;4904857;29;20055;-64
2023/05/20 14:06:00;;;;;;;6.18;2.30;;;;;;;;;;4913119;29;20058;-66
2023/05/20 14:08:26;;;;;;;7.32;2.67;;;;;;;;;;4909412;29;20040;-65
2023/05/20 14:10:53;;;;;;;6.68;2.10;;;;;;;;;;4926418;29;20075;-67
2023/05/20 14:13:21;;;;;;;4.53;1.83;;;;;;;;;;4910260;29;20436;-64
2023/05/20 14:15:49;;;;;;;5.53;1.88;;;;;;;;;;4908649;29;20082;-65
2023/05/20 14:18:18;;;;;;;8.23;2.63;;;;;;;;;;4911146;29;20409;-66
2023/05/20 14:20:45;;;;;;;9.85;1.85;;;;;;;;;;4912618;29;20055;-64
2023/05/20 14:23:13;;;;;;;3.03;1.73;;;;;;;;;;4907554;29;20509;-64
2023/05/20 14:25:39;;;;;;;4.32;2.03;;;;;;;;;;4908904;29;20052;-66
2023/05/20 14:28:05;;;;;;;3.75;1.90;;;;;;;;;;4909271;29;20040;-65
2023/05/20 14:30:32;;;;;;;5.75;2.03;;;;;;;;;;4910872;29;20052;-63
2023/05/20 14:32:57;;;;;;;5.90;2.22;;;;;;;;;;4909171;29;20060;-65
2023/05/20 14:35:24;;;;;;;5.38;2.10;;;;;;;;;;4899905;29;20136;-66
2023/05/20 14:37:51;;;;;;;5.53;2.15;;;;;;;;;;4901988;29;20526;-64
2023/05/20 14:40:58;;;;;;;3.63;1.67;;;;;;;;;;4904918;29;20060;-66
2023/05/20 14:44:38;;;;;;;5.65;1.85;;;;;;;;;;4906191;29;20040;-66
2023/05/20 14:48:19;;;;;;;4.15;2.10;;;;;;;;;;4909551;29;20055;-65
2023/05/20 14:51:59;;;;;;;10.13;1.98;;;;;;;;;;4906413;29;20041;-66
2023/05/20 14:55:00;;;;;;;5.03;1.90;;;;;;;;;;4905201;29;20056;-64
2023/05/20 14:58:07;;;;;;;5.13;1.88;;;;;;;;;;4909434;29;20618;-62
2023/05/20 15:01:47;;;;;;;5.80;2.00;;;;;;;;;;4908886;29;20049;-62
2023/05/20 15:05:27;;;;;;;4.63;2.00;;;;;;;;;;4907214;29;20063;-64
2023/05/20 15:09:08;;;;;;;8.05;2.15;;;;;;;;;;4903267;29;20095;-66
2023/05/20 15:12:49;;;;;;;4.75;2.00;;;;;;;;;;4891816;29;20424;-67
2023/05/20 15:16:28;;;;;;;4.55;1.90;;;;;;;;;;4905966;29;20048;-68
2023/05/20 15:20:09;;;;;;;4.75;1.80;;;;;;;;;;4912775;29;20531;-67
2023/05/20 15:23:49;;;;;;;6.35;2.13;;;;;;;;;;4912860;29;20089;-67
2023/05/20 15:27:31;;;;;;;6.20;2.08;;;;;;;;;;4907609;29;20048;-68
2023/05/20 15:31:15;;;;;;;4.85;2.13;;;;;;;;;;4906393;29;20491;-63
2023/05/20 15:34:55;;;;;;;9.52;2.13;;;;;;;;;;4907310;29;20493;-66
2023/05/20 15:38:35;;;;;;;6.68;2.10;;;;;;;;;;4907018;29;20063;-65
2023/05/20 15:42:17;;;;;;;4.57;2.08;;;;;;;;;;4907004;29;20048;-65
2023/05/20 15:45:56;;;;;;;5.80;1.90;;;;;;;;;;4903881;29;20246;-66
2023/05/20 15:49:36;;;;;;;5.88;2.00;;;;;;;;;;4911094;29;20126;-65
2023/05/20 15:53:18;;;;;;;9.70;2.30;;;;;;;;;;4914686;29;20359;-70
2023/05/20 15:56:58;;;;;;;4.70;2.30;;;;;;;;;;4910671;29;20064;-66
2023/05/20 16:00:39;;;;;;;5.53;2.10;;;;;;;;;;4913637;29;20051;-67
2023/05/20 16:04:20;;;;;;;7.53;2.33;;;;;;;;;;4901908;29;20227;-68
2023/05/20 16:08:03;;;;;;;6.18;2.50;;;;;;;;;;4910671;29;20048;-70